sensor_id;sensor_type;location;lat;lon;timestamp;P1;durP1;ratioP1;P2;durP2;ratioP2
13114;SDS011;6623;52.120;8.660;2023-12-22T00:01:14;8.30;;;2.80;;
13114;SDS011;6623;52.120;8.660;2023-12-22T00:03:42;8.17;;;2.77;;
13114;SDS011;6623;52.120;8.660;2023-12-22T00:06:10;7.63;;;2.50;;
13114;SDS011;6623;52.120;8.660;2023-12-22T00:08:36;7.07;;;2.80;;
13114;SDS011;6623;52.120;8.660;2023-12-22T00:11:02;7.50;;;2.70;;
13114;SDS011;6623;52.120;8.660;2023-12-22T00:13:28;9.10;;;2.70;;
13114;SDS011;6623;52.120;8.660;2023-12-22T00:15:53;8.07;;;2.63;;
13114;SDS011;6623;52.120;8.660;2023-12-22T00:18:19;7.90;;;2.57;;
13114;SDS011;6623;52.120;8.660;2023-12-22T00:20:44;6.37;;;2.37;;
13114;SDS011;6623;52.120;8.660;2023-12-22T00:23:10;8.37;;;2.60;;
13114;SDS011;6623;52.120;8.660;2023-12-22T00:25:35;7.77;;;2.63;;
13114;SDS011;6623;52.120;8.660;2023-12-22T00:28:00;7.87;;;2.87;;
13114;SDS011;6623;52.120;8.660;2023-12-22T00:30:26;7.63;;;2.47;;
13114;SDS011;6623;52.120;8.660;2023-12-22T00:32:51;9.23;;;2.60;;
13114;SDS011;6623;52.120;8.660;2023-12-22T00:35:17;8.63;;;2.80;;
13114;SDS011;6623;52.120;8.660;2023-12-22T00:37:42;8.63;;;2.63;;
13114;SDS011;6623;52.120;8.660;2023-12-22T00:40:08;7.53;;;2.73;;
13114;SDS011;6623;52.120;8.660;2023-12-22T00:42:34;9.03;;;2.73;;
13114;SDS011;6623;52.120;8.660;2023-12-22T00:45:00;7.50;;;2.50;;
13114;SDS011;6623;52.120;8.660;2023-12-22T00:47:26;7.97;;;2.80;;
13114;SDS011;6623;52.120;8.660;2023-12-22T00:49:51;8.97;;;2.67;;
13114;SDS011;6623;52.120;8.660;2023-12-22T00:52:17;6.33;;;2.50;;
13114;SDS011;6623;52.120;8.660;2023-12-22T00:54:42;6.40;;;2.37;;
13114;SDS011;6623;52.120;8.660;2023-12-22T00:57:08;8.03;;;2.70;;
13114;SDS011;6623;52.120;8.660;2023-12-22T00:59:34;6.73;;;2.40;;
13114;SDS011;6623;52.120;8.660;2023-12-22T01:01:59;6.17;;;2.00;;
13114;SDS011;6623;52.120;8.660;2023-12-22T01:04:24;7.53;;;2.50;;
13114;SDS011;6623;52.120;8.660;2023-12-22T01:06:50;7.87;;;2.47;;
13114;SDS011;6623;52.120;8.660;2023-12-22T01:09:15;7.10;;;2.23;;
13114;SDS011;6623;52.120;8.660;2023-12-22T01:11:41;6.77;;;2.30;;
13114;SDS011;6623;52.120;8.660;2023-12-22T01:14:07;7.97;;;2.60;;
13114;SDS011;6623;52.120;8.660;2023-12-22T01:16:32;7.63;;;2.27;;
13114;SDS011;6623;52.120;8.660;2023-12-22T01:18:58;8.20;;;2.40;;
13114;SDS011;6623;52.120;8.660;2023-12-22T01:21:24;7.87;;;2.30;;
13114;SDS011;6623;52.120;8.660;2023-12-22T01:23:49;7.07;;;2.53;;
13114;SDS011;6623;52.120;8.660;2023-12-22T01:26:15;5.23;;;2.13;;
13114;SDS011;6623;52.120;8.660;2023-12-22T01:28:40;7.43;;;2.07;;
13114;SDS011;6623;52.120;8.660;2023-12-22T01:31:06;6.67;;;2.27;;
13114;SDS011;6623;52.120;8.660;2023-12-22T01:33:31;6.60;;;2.17;;
13114;SDS011;6623;52.120;8.660;2023-12-22T01:35:57;7.77;;;2.37;;
13114;SDS011;6623;52.120;8.660;2023-12-22T01:38:22;5.77;;;2.13;;
13114;SDS011;6623;52.120;8.660;2023-12-22T01:40:48;6.10;;;2.13;;
13114;SDS011;6623;52.120;8.660;2023-12-22T01:43:13;5.63;;;1.93;;
13114;SDS011;6623;52.120;8.660;2023-12-22T01:45:39;5.87;;;2.50;;
13114;SDS011;6623;52.120;8.660;2023-12-22T01:48:08;7.30;;;2.37;;
13114;SDS011;6623;52.120;8.660;2023-12-22T01:50:34;5.33;;;1.90;;
13114;SDS011;6623;52.120;8.660;2023-12-22T01:53:01;5.40;;;2.27;;
13114;SDS011;6623;52.120;8.660;2023-12-22T01:55:27;6.37;;;2.10;;
13114;SDS011;6623;52.120;8.660;2023-12-22T01:57:52;6.77;;;2.20;;
13114;SDS011;6623;52.120;8.660;2023-12-22T02:00:18;5.23;;;1.90;;
13114;SDS011;6623;52.120;8.660;2023-12-22T02:02:43;5.67;;;1.90;;
13114;SDS011;6623;52.120;8.660;2023-12-22T02:05:09;5.27;;;1.87;;
13114;SDS011;6623;52.120;8.660;2023-12-22T02:07:36;5.60;;;2.07;;
13114;SDS011;6623;52.120;8.660;2023-12-22T02:10:05;5.03;;;1.77;;
13114;SDS011;6623;52.120;8.660;2023-12-22T02:12:32;5.00;;;1.87;;
13114;SDS011;6623;52.120;8.660;2023-12-22T02:14:57;5.80;;;2.00;;
13114;SDS011;6623;52.120;8.660;2023-12-22T02:17:29;6.43;;;2.20;;
13114;SDS011;6623;52.120;8.660;2023-12-22T02:20:04;4.97;;;1.83;;
13114;SDS011;6623;52.120;8.660;2023-12-22T02:22:31;4.83;;;1.87;;
13114;SDS011;6623;52.120;8.660;2023-12-22T02:24:57;5.87;;;2.10;;
13114;SDS011;6623;52.120;8.660;2023-12-22T02:27:25;6.13;;;1.93;;
13114;SDS011;6623;52.120;8.660;2023-12-22T02:32:31;5.93;;;1.63;;
13114;SDS011;6623;52.120;8.660;2023-12-22T02:35:00;5.87;;;1.80;;
13114;SDS011;6623;52.120;8.660;2023-12-22T02:37:29;7.37;;;2.20;;
13114;SDS011;6623;52.120;8.660;2023-12-22T02:39:57;4.70;;;1.73;;
13114;SDS011;6623;52.120;8.660;2023-12-22T02:42:24;4.73;;;1.67;;
13114;SDS011;6623;52.120;8.660;2023-12-22T02:44:55;4.40;;;1.70;;
13114;SDS011;6623;52.120;8.660;2023-12-22T02:47:24;4.77;;;1.40;;
13114;SDS011;6623;52.120;8.660;2023-12-22T02:49:50;3.13;;;1.50;;
13114;SDS011;6623;52.120;8.660;2023-12-22T02:52:15;4.03;;;1.63;;
13114;SDS011;6623;52.120;8.660;2023-12-22T02:54:41;5.33;;;1.80;;
13114;SDS011;6623;52.120;8.660;2023-12-22T02:57:07;4.17;;;1.67;;
13114;SDS011;6623;52.120;8.660;2023-12-22T02:59:33;4.60;;;1.80;;
13114;SDS011;6623;52.120;8.660;2023-12-22T03:01:58;4.43;;;1.50;;
13114;SDS011;6623;52.120;8.660;2023-12-22T03:04:24;3.50;;;1.50;;
13114;SDS011;6623;52.120;8.660;2023-12-22T03:06:49;5.10;;;1.43;;
13114;SDS011;6623;52.120;8.660;2023-12-22T03:09:15;6.07;;;1.87;;
13114;SDS011;6623;52.120;8.660;2023-12-22T03:11:40;4.50;;;1.47;;
13114;SDS011;6623;52.120;8.660;2023-12-22T03:14:06;5.03;;;1.50;;
13114;SDS011;6623;52.120;8.660;2023-12-22T03:16:31;2.93;;;1.20;;
13114;SDS011;6623;52.120;8.660;2023-12-22T03:18:57;4.07;;;1.60;;
13114;SDS011;6623;52.120;8.660;2023-12-22T03:21:22;4.47;;;1.80;;
13114;SDS011;6623;52.120;8.660;2023-12-22T03:23:48;4.60;;;1.70;;
13114;SDS011;6623;52.120;8.660;2023-12-22T03:26:13;4.37;;;1.53;;
13114;SDS011;6623;52.120;8.660;2023-12-22T03:28:39;4.53;;;1.50;;
13114;SDS011;6623;52.120;8.660;2023-12-22T03:31:04;3.77;;;1.50;;
13114;SDS011;6623;52.120;8.660;2023-12-22T03:33:31;3.63;;;1.50;;
13114;SDS011;6623;52.120;8.660;2023-12-22T03:35:57;4.30;;;1.60;;
13114;SDS011;6623;52.120;8.660;2023-12-22T03:38:22;4.70;;;1.87;;
13114;SDS011;6623;52.120;8.660;2023-12-22T03:40:48;4.53;;;1.67;;
13114;SDS011;6623;52.120;8.660;2023-12-22T03:43:13;5.60;;;1.80;;
13114;SDS011;6623;52.120;8.660;2023-12-22T03:45:39;4.07;;;1.47;;
13114;SDS011;6623;52.120;8.660;2023-12-22T03:48:05;3.73;;;1.43;;
13114;SDS011;6623;52.120;8.660;2023-12-22T03:50:30;4.97;;;1.60;;
13114;SDS011;6623;52.120;8.660;2023-12-22T03:52:56;4.30;;;1.50;;
13114;SDS011;6623;52.120;8.660;2023-12-22T03:55:21;3.87;;;1.40;;
13114;SDS011;6623;52.120;8.660;2023-12-22T03:57:47;4.07;;;1.23;;
13114;SDS011;6623;52.120;8.660;2023-12-22T04:00:13;4.53;;;1.60;;
13114;SDS011;6623;52.120;8.660;2023-12-22T04:02:39;4.13;;;1.40;;
13114;SDS011;6623;52.120;8.660;2023-12-22T04:05:05;4.17;;;1.80;;
13114;SDS011;6623;52.120;8.660;2023-12-22T04:07:31;4.27;;;1.50;;
13114;SDS011;6623;52.120;8.660;2023-12-22T04:09:56;4.93;;;1.70;;
13114;SDS011;6623;52.120;8.660;2023-12-22T04:12:22;2.53;;;1.60;;
13114;SDS011;6623;52.120;8.660;2023-12-22T04:14:47;3.80;;;1.40;;
13114;SDS011;6623;52.120;8.660;2023-12-22T04:17:13;4.43;;;1.60;;
13114;SDS011;6623;52.120;8.660;2023-12-22T04:19:38;4.23;;;1.57;;
13114;SDS011;6623;52.120;8.660;2023-12-22T04:22:04;4.07;;;1.47;;
13114;SDS011;6623;52.120;8.660;2023-12-22T04:24:29;3.33;;;1.13;;
13114;SDS011;6623;52.120;8.660;2023-12-22T04:26:55;4.93;;;1.67;;
13114;SDS011;6623;52.120;8.660;2023-12-22T04:29:20;3.90;;;1.60;;
13114;SDS011;6623;52.120;8.660;2023-12-22T04:31:46;4.23;;;1.70;;
13114;SDS011;6623;52.120;8.660;2023-12-22T04:34:14;5.33;;;1.80;;
13114;SDS011;6623;52.120;8.660;2023-12-22T04:36:40;4.47;;;1.50;;
13114;SDS011;6623;52.120;8.660;2023-12-22T04:39:06;3.90;;;1.70;;
13114;SDS011;6623;52.120;8.660;2023-12-22T04:41:32;3.73;;;1.50;;
13114;SDS011;6623;52.120;8.660;2023-12-22T04:43:57;4.40;;;1.77;;
13114;SDS011;6623;52.120;8.660;2023-12-22T04:46:23;4.67;;;1.77;;
13114;SDS011;6623;52.120;8.660;2023-12-22T04:48:48;4.80;;;1.70;;
13114;SDS011;6623;52.120;8.660;2023-12-22T04:51:14;5.30;;;1.63;;
13114;SDS011;6623;52.120;8.660;2023-12-22T04:53:39;3.37;;;1.30;;
13114;SDS011;6623;52.120;8.660;2023-12-22T04:56:08;4.57;;;1.80;;
13114;SDS011;6623;52.120;8.660;2023-12-22T04:58:33;7.27;;;1.93;;
13114;SDS011;6623;52.120;8.660;2023-12-22T05:00:59;3.33;;;1.27;;
13114;SDS011;6623;52.120;8.660;2023-12-22T05:03:24;3.53;;;1.70;;
13114;SDS011;6623;52.120;8.660;2023-12-22T05:05:50;4.70;;;1.43;;
13114;SDS011;6623;52.120;8.660;2023-12-22T05:08:15;4.73;;;1.60;;
13114;SDS011;6623;52.120;8.660;2023-12-22T05:10:41;3.13;;;1.40;;
13114;SDS011;6623;52.120;8.660;2023-12-22T05:13:06;5.30;;;1.80;;
13114;SDS011;6623;52.120;8.660;2023-12-22T05:15:32;4.03;;;1.40;;
13114;SDS011;6623;52.120;8.660;2023-12-22T05:17:57;4.17;;;1.57;;
13114;SDS011;6623;52.120;8.660;2023-12-22T05:20:23;6.43;;;2.00;;
13114;SDS011;6623;52.120;8.660;2023-12-22T05:22:48;5.17;;;1.83;;
13114;SDS011;6623;52.120;8.660;2023-12-22T05:25:14;3.73;;;1.30;;
13114;SDS011;6623;52.120;8.660;2023-12-22T05:27:40;6.97;;;1.63;;
13114;SDS011;6623;52.120;8.660;2023-12-22T05:30:08;5.50;;;1.57;;
13114;SDS011;6623;52.120;8.660;2023-12-22T05:32:33;4.30;;;1.50;;
13114;SDS011;6623;52.120;8.660;2023-12-22T05:34:59;4.80;;;1.70;;
13114;SDS011;6623;52.120;8.660;2023-12-22T05:37:24;4.97;;;1.50;;
13114;SDS011;6623;52.120;8.660;2023-12-22T05:39:50;3.43;;;1.47;;
13114;SDS011;6623;52.120;8.660;2023-12-22T05:42:15;4.33;;;1.43;;
13114;SDS011;6623;52.120;8.660;2023-12-22T05:44:41;4.40;;;1.60;;
13114;SDS011;6623;52.120;8.660;2023-12-22T05:47:07;4.00;;;1.50;;
13114;SDS011;6623;52.120;8.660;2023-12-22T05:49:33;5.50;;;1.47;;
13114;SDS011;6623;52.120;8.660;2023-12-22T05:51:58;4.60;;;1.50;;
13114;SDS011;6623;52.120;8.660;2023-12-22T05:54:24;4.30;;;1.40;;
13114;SDS011;6623;52.120;8.660;2023-12-22T05:56:50;3.80;;;1.50;;
13114;SDS011;6623;52.120;8.660;2023-12-22T05:59:16;3.83;;;1.60;;
13114;SDS011;6623;52.120;8.660;2023-12-22T06:01:42;3.83;;;1.37;;
13114;SDS011;6623;52.120;8.660;2023-12-22T06:04:08;4.33;;;1.50;;
13114;SDS011;6623;52.120;8.660;2023-12-22T06:06:34;5.73;;;1.53;;
13114;SDS011;6623;52.120;8.660;2023-12-22T06:09:01;3.00;;;1.50;;
13114;SDS011;6623;52.120;8.660;2023-12-22T06:11:26;2.97;;;1.30;;
13114;SDS011;6623;52.120;8.660;2023-12-22T06:13:52;4.50;;;1.43;;
13114;SDS011;6623;52.120;8.660;2023-12-22T06:16:17;4.83;;;1.40;;
13114;SDS011;6623;52.120;8.660;2023-12-22T06:18:43;4.73;;;1.40;;
13114;SDS011;6623;52.120;8.660;2023-12-22T06:21:09;4.70;;;1.30;;
13114;SDS011;6623;52.120;8.660;2023-12-22T06:23:35;3.90;;;1.63;;
13114;SDS011;6623;52.120;8.660;2023-12-22T06:26:01;6.17;;;1.47;;
13114;SDS011;6623;52.120;8.660;2023-12-22T06:28:32;3.50;;;1.30;;
13114;SDS011;6623;52.120;8.660;2023-12-22T06:30:57;3.83;;;1.20;;
13114;SDS011;6623;52.120;8.660;2023-12-22T06:33:23;3.47;;;1.07;;
13114;SDS011;6623;52.120;8.660;2023-12-22T06:35:48;3.50;;;1.20;;
13114;SDS011;6623;52.120;8.660;2023-12-22T06:38:18;2.83;;;1.20;;
13114;SDS011;6623;52.120;8.660;2023-12-22T06:40:44;2.67;;;1.10;;
13114;SDS011;6623;52.120;8.660;2023-12-22T06:43:11;5.53;;;1.67;;
13114;SDS011;6623;52.120;8.660;2023-12-22T06:45:36;3.50;;;1.30;;
13114;SDS011;6623;52.120;8.660;2023-12-22T06:48:02;3.77;;;1.13;;
13114;SDS011;6623;52.120;8.660;2023-12-22T06:50:28;3.33;;;1.40;;
13114;SDS011;6623;52.120;8.660;2023-12-22T06:52:53;3.80;;;1.37;;
13114;SDS011;6623;52.120;8.660;2023-12-22T06:55:19;3.10;;;1.17;;
13114;SDS011;6623;52.120;8.660;2023-12-22T06:57:44;2.77;;;1.20;;
13114;SDS011;6623;52.120;8.660;2023-12-22T07:00:10;3.27;;;1.10;;
13114;SDS011;6623;52.120;8.660;2023-12-22T07:02:36;3.33;;;1.20;;
13114;SDS011;6623;52.120;8.660;2023-12-22T07:07:48;2.37;;;1.10;;
13114;SDS011;6623;52.120;8.660;2023-12-22T07:10:15;3.20;;;1.30;;
13114;SDS011;6623;52.120;8.660;2023-12-22T07:12:41;2.90;;;1.30;;
13114;SDS011;6623;52.120;8.660;2023-12-22T07:15:07;4.33;;;1.30;;
13114;SDS011;6623;52.120;8.660;2023-12-22T07:17:34;3.50;;;1.17;;
13114;SDS011;6623;52.120;8.660;2023-12-22T07:20:00;4.00;;;1.20;;
13114;SDS011;6623;52.120;8.660;2023-12-22T07:22:28;4.43;;;1.30;;
13114;SDS011;6623;52.120;8.660;2023-12-22T07:24:53;6.07;;;1.53;;
13114;SDS011;6623;52.120;8.660;2023-12-22T07:27:20;4.93;;;1.20;;
13114;SDS011;6623;52.120;8.660;2023-12-22T07:29:46;2.70;;;0.90;;
13114;SDS011;6623;52.120;8.660;2023-12-22T07:32:11;3.70;;;1.20;;
13114;SDS011;6623;52.120;8.660;2023-12-22T07:34:37;3.83;;;1.30;;
13114;SDS011;6623;52.120;8.660;2023-12-22T07:37:03;3.90;;;1.13;;
13114;SDS011;6623;52.120;8.660;2023-12-22T07:39:29;4.60;;;1.23;;
13114;SDS011;6623;52.120;8.660;2023-12-22T07:41:55;3.53;;;1.20;;
13114;SDS011;6623;52.120;8.660;2023-12-22T07:44:20;2.93;;;1.07;;
13114;SDS011;6623;52.120;8.660;2023-12-22T07:46:53;3.20;;;1.23;;
13114;SDS011;6623;52.120;8.660;2023-12-22T07:49:24;4.67;;;1.30;;
13114;SDS011;6623;52.120;8.660;2023-12-22T07:51:52;3.43;;;1.30;;
13114;SDS011;6623;52.120;8.660;2023-12-22T07:54:18;4.70;;;1.33;;
13114;SDS011;6623;52.120;8.660;2023-12-22T07:56:43;3.33;;;1.17;;
13114;SDS011;6623;52.120;8.660;2023-12-22T07:59:09;2.87;;;1.23;;
13114;SDS011;6623;52.120;8.660;2023-12-22T08:01:34;4.90;;;1.37;;
13114;SDS011;6623;52.120;8.660;2023-12-22T08:04:00;2.73;;;1.07;;
13114;SDS011;6623;52.120;8.660;2023-12-22T08:06:25;3.03;;;1.40;;
13114;SDS011;6623;52.120;8.660;2023-12-22T08:08:51;4.50;;;1.30;;
13114;SDS011;6623;52.120;8.660;2023-12-22T08:11:16;3.57;;;1.30;;
13114;SDS011;6623;52.120;8.660;2023-12-22T08:13:42;3.70;;;1.53;;
13114;SDS011;6623;52.120;8.660;2023-12-22T08:16:07;3.33;;;1.10;;
13114;SDS011;6623;52.120;8.660;2023-12-22T08:18:33;3.97;;;1.47;;
13114;SDS011;6623;52.120;8.660;2023-12-22T08:20:58;2.80;;;1.00;;
13114;SDS011;6623;52.120;8.660;2023-12-22T08:23:24;2.73;;;1.00;;
13114;SDS011;6623;52.120;8.660;2023-12-22T08:25:49;4.13;;;1.30;;
13114;SDS011;6623;52.120;8.660;2023-12-22T08:28:15;3.13;;;1.20;;
13114;SDS011;6623;52.120;8.660;2023-12-22T08:30:40;2.77;;;1.30;;
13114;SDS011;6623;52.120;8.660;2023-12-22T08:33:06;3.80;;;1.47;;
13114;SDS011;6623;52.120;8.660;2023-12-22T08:35:31;2.53;;;1.20;;
13114;SDS011;6623;52.120;8.660;2023-12-22T08:37:57;2.93;;;1.30;;
13114;SDS011;6623;52.120;8.660;2023-12-22T08:40:23;2.73;;;1.33;;
13114;SDS011;6623;52.120;8.660;2023-12-22T08:42:51;2.67;;;1.30;;
13114;SDS011;6623;52.120;8.660;2023-12-22T08:45:19;3.30;;;1.50;;
13114;SDS011;6623;52.120;8.660;2023-12-22T08:47:46;3.20;;;1.27;;
13114;SDS011;6623;52.120;8.660;2023-12-22T08:50:11;2.87;;;1.20;;
13114;SDS011;6623;52.120;8.660;2023-12-22T08:52:38;3.43;;;1.20;;
13114;SDS011;6623;52.120;8.660;2023-12-22T08:55:03;3.03;;;1.30;;
13114;SDS011;6623;52.120;8.660;2023-12-22T08:57:30;4.00;;;1.10;;
13114;SDS011;6623;52.120;8.660;2023-12-22T08:59:56;3.47;;;1.30;;
13114;SDS011;6623;52.120;8.660;2023-12-22T09:02:22;4.00;;;1.20;;
13114;SDS011;6623;52.120;8.660;2023-12-22T09:04:47;4.07;;;1.30;;
13114;SDS011;6623;52.120;8.660;2023-12-22T09:07:13;2.00;;;1.00;;
13114;SDS011;6623;52.120;8.660;2023-12-22T09:09:38;2.83;;;1.20;;
13114;SDS011;6623;52.120;8.660;2023-12-22T09:12:05;2.67;;;1.17;;
13114;SDS011;6623;52.120;8.660;2023-12-22T09:14:30;4.40;;;1.13;;
13114;SDS011;6623;52.120;8.660;2023-12-22T09:16:56;3.10;;;1.10;;
13114;SDS011;6623;52.120;8.660;2023-12-22T09:19:21;2.60;;;0.93;;
13114;SDS011;6623;52.120;8.660;2023-12-22T09:21:47;2.60;;;1.10;;
13114;SDS011;6623;52.120;8.660;2023-12-22T09:24:13;2.80;;;1.30;;
13114;SDS011;6623;52.120;8.660;2023-12-22T09:26:41;2.80;;;1.20;;
13114;SDS011;6623;52.120;8.660;2023-12-22T09:29:07;3.67;;;1.17;;
13114;SDS011;6623;52.120;8.660;2023-12-22T09:31:32;4.23;;;1.30;;
13114;SDS011;6623;52.120;8.660;2023-12-22T09:33:58;2.50;;;1.10;;
13114;SDS011;6623;52.120;8.660;2023-12-22T09:36:23;2.83;;;1.10;;
13114;SDS011;6623;52.120;8.660;2023-12-22T09:38:49;3.67;;;1.20;;
13114;SDS011;6623;52.120;8.660;2023-12-22T09:41:14;3.40;;;1.43;;
13114;SDS011;6623;52.120;8.660;2023-12-22T09:43:40;3.17;;;1.20;;
13114;SDS011;6623;52.120;8.660;2023-12-22T09:46:09;2.10;;;1.00;;
13114;SDS011;6623;52.120;8.660;2023-12-22T09:48:36;3.17;;;1.20;;
13114;SDS011;6623;52.120;8.660;2023-12-22T09:51:10;2.57;;;1.20;;
13114;SDS011;6623;52.120;8.660;2023-12-22T09:53:39;2.83;;;1.03;;
13114;SDS011;6623;52.120;8.660;2023-12-22T09:56:06;3.23;;;1.40;;
13114;SDS011;6623;52.120;8.660;2023-12-22T09:58:33;3.27;;;1.10;;
13114;SDS011;6623;52.120;8.660;2023-12-22T10:01:00;2.90;;;1.17;;
13114;SDS011;6623;52.120;8.660;2023-12-22T10:03:30;1.87;;;1.00;;
13114;SDS011;6623;52.120;8.660;2023-12-22T10:05:58;2.80;;;1.30;;
13114;SDS011;6623;52.120;8.660;2023-12-22T10:08:23;3.43;;;1.30;;
13114;SDS011;6623;52.120;8.660;2023-12-22T10:10:51;2.60;;;1.10;;
13114;SDS011;6623;52.120;8.660;2023-12-22T10:13:17;1.97;;;0.90;;
13114;SDS011;6623;52.120;8.660;2023-12-22T10:15:43;1.97;;;0.90;;
13114;SDS011;6623;52.120;8.660;2023-12-22T10:18:11;2.60;;;1.00;;
13114;SDS011;6623;52.120;8.660;2023-12-22T10:20:38;2.77;;;1.20;;
13114;SDS011;6623;52.120;8.660;2023-12-22T10:23:03;3.70;;;1.13;;
13114;SDS011;6623;52.120;8.660;2023-12-22T10:25:29;3.13;;;1.10;;
13114;SDS011;6623;52.120;8.660;2023-12-22T10:27:55;3.07;;;1.07;;
13114;SDS011;6623;52.120;8.660;2023-12-22T10:30:21;2.27;;;1.20;;
13114;SDS011;6623;52.120;8.660;2023-12-22T10:32:50;2.97;;;1.10;;
13114;SDS011;6623;52.120;8.660;2023-12-22T10:35:16;1.80;;;0.93;;
13114;SDS011;6623;52.120;8.660;2023-12-22T10:37:42;2.37;;;1.10;;
13114;SDS011;6623;52.120;8.660;2023-12-22T10:40:08;2.43;;;1.00;;
13114;SDS011;6623;52.120;8.660;2023-12-22T10:42:35;2.90;;;0.93;;
13114;SDS011;6623;52.120;8.660;2023-12-22T10:45:01;2.53;;;1.10;;
13114;SDS011;6623;52.120;8.660;2023-12-22T10:47:28;2.57;;;1.00;;
13114;SDS011;6623;52.120;8.660;2023-12-22T10:49:54;2.57;;;1.10;;
13114;SDS011;6623;52.120;8.660;2023-12-22T10:52:19;2.23;;;1.10;;
13114;SDS011;6623;52.120;8.660;2023-12-22T10:54:48;1.53;;;0.90;;
13114;SDS011;6623;52.120;8.660;2023-12-22T10:57:17;2.60;;;0.97;;
13114;SDS011;6623;52.120;8.660;2023-12-22T10:59:44;2.63;;;1.00;;
13114;SDS011;6623;52.120;8.660;2023-12-22T11:02:15;3.00;;;0.80;;
13114;SDS011;6623;52.120;8.660;2023-12-22T11:04:42;2.40;;;1.10;;
13114;SDS011;6623;52.120;8.660;2023-12-22T11:07:12;2.30;;;0.97;;
13114;SDS011;6623;52.120;8.660;2023-12-22T11:09:39;1.87;;;0.90;;
13114;SDS011;6623;52.120;8.660;2023-12-22T11:12:09;1.90;;;1.00;;
13114;SDS011;6623;52.120;8.660;2023-12-22T11:14:36;1.90;;;0.90;;
13114;SDS011;6623;52.120;8.660;2023-12-22T11:17:04;2.07;;;0.90;;
13114;SDS011;6623;52.120;8.660;2023-12-22T11:19:31;1.83;;;0.90;;
13114;SDS011;6623;52.120;8.660;2023-12-22T11:22:00;1.63;;;0.90;;
13114;SDS011;6623;52.120;8.660;2023-12-22T11:24:28;1.77;;;0.90;;
13114;SDS011;6623;52.120;8.660;2023-12-22T11:26:56;1.83;;;0.90;;
13114;SDS011;6623;52.120;8.660;2023-12-22T11:29:23;1.50;;;0.83;;
13114;SDS011;6623;52.120;8.660;2023-12-22T11:31:51;1.70;;;0.77;;
13114;SDS011;6623;52.120;8.660;2023-12-22T11:34:20;1.53;;;0.80;;
13114;SDS011;6623;52.120;8.660;2023-12-22T11:36:47;1.57;;;0.73;;
13114;SDS011;6623;52.120;8.660;2023-12-22T11:39:13;1.63;;;0.80;;
13114;SDS011;6623;52.120;8.660;2023-12-22T11:41:39;2.53;;;0.90;;
13114;SDS011;6623;52.120;8.660;2023-12-22T11:44:06;1.80;;;0.83;;
13114;SDS011;6623;52.120;8.660;2023-12-22T11:46:32;1.43;;;0.80;;
13114;SDS011;6623;52.120;8.660;2023-12-22T11:48:59;2.73;;;1.00;;
13114;SDS011;6623;52.120;8.660;2023-12-22T11:51:24;2.00;;;0.80;;
13114;SDS011;6623;52.120;8.660;2023-12-22T11:53:57;1.33;;;0.80;;
13114;SDS011;6623;52.120;8.660;2023-12-22T11:56:22;2.57;;;1.00;;
13114;SDS011;6623;52.120;8.660;2023-12-22T11:58:51;1.37;;;0.80;;
13114;SDS011;6623;52.120;8.660;2023-12-22T12:01:19;1.60;;;0.73;;
13114;SDS011;6623;52.120;8.660;2023-12-22T12:03:53;1.93;;;1.07;;
13114;SDS011;6623;52.120;8.660;2023-12-22T12:08:54;1.37;;;0.80;;
13114;SDS011;6623;52.120;8.660;2023-12-22T12:11:20;1.47;;;0.53;;
13114;SDS011;6623;52.120;8.660;2023-12-22T12:13:47;2.10;;;0.80;;
13114;SDS011;6623;52.120;8.660;2023-12-22T12:16:13;1.70;;;0.70;;
13114;SDS011;6623;52.120;8.660;2023-12-22T12:18:41;1.70;;;0.70;;
13114;SDS011;6623;52.120;8.660;2023-12-22T12:21:07;2.10;;;0.90;;
13114;SDS011;6623;52.120;8.660;2023-12-22T12:23:34;1.43;;;0.70;;
13114;SDS011;6623;52.120;8.660;2023-12-22T12:25:59;2.40;;;0.80;;
13114;SDS011;6623;52.120;8.660;2023-12-22T12:28:26;1.23;;;0.77;;
13114;SDS011;6623;52.120;8.660;2023-12-22T12:31:01;3.03;;;1.00;;
13114;SDS011;6623;52.120;8.660;2023-12-22T12:33:29;1.83;;;0.90;;
13114;SDS011;6623;52.120;8.660;2023-12-22T12:36:01;1.37;;;0.77;;
13114;SDS011;6623;52.120;8.660;2023-12-22T12:38:36;1.83;;;0.80;;
13114;SDS011;6623;52.120;8.660;2023-12-22T12:41:04;1.60;;;0.67;;
13114;SDS011;6623;52.120;8.660;2023-12-22T12:43:30;1.17;;;0.60;;
13114;SDS011;6623;52.120;8.660;2023-12-22T12:46:02;1.57;;;0.60;;
13114;SDS011;6623;52.120;8.660;2023-12-22T12:48:31;0.77;;;0.40;;
13114;SDS011;6623;52.120;8.660;2023-12-22T12:51:01;1.43;;;0.77;;
13114;SDS011;6623;52.120;8.660;2023-12-22T12:53:33;1.60;;;0.70;;
13114;SDS011;6623;52.120;8.660;2023-12-22T12:56:02;1.53;;;0.70;;
13114;SDS011;6623;52.120;8.660;2023-12-22T12:58:29;1.33;;;0.67;;
13114;SDS011;6623;52.120;8.660;2023-12-22T13:01:06;1.20;;;0.70;;
13114;SDS011;6623;52.120;8.660;2023-12-22T13:03:55;1.77;;;0.70;;
13114;SDS011;6623;52.120;8.660;2023-12-22T13:06:21;1.90;;;0.70;;
13114;SDS011;6623;52.120;8.660;2023-12-22T13:08:48;1.30;;;0.60;;
13114;SDS011;6623;52.120;8.660;2023-12-22T13:11:15;1.10;;;0.53;;
13114;SDS011;6623;52.120;8.660;2023-12-22T13:13:41;1.50;;;0.50;;
13114;SDS011;6623;52.120;8.660;2023-12-22T13:16:07;2.00;;;0.90;;
13114;SDS011;6623;52.120;8.660;2023-12-22T13:18:34;1.40;;;0.60;;
13114;SDS011;6623;52.120;8.660;2023-12-22T13:21:00;1.17;;;0.70;;
13114;SDS011;6623;52.120;8.660;2023-12-22T13:23:26;0.93;;;0.53;;
13114;SDS011;6623;52.120;8.660;2023-12-22T13:25:52;1.23;;;0.63;;
13114;SDS011;6623;52.120;8.660;2023-12-22T13:28:27;1.40;;;0.77;;
13114;SDS011;6623;52.120;8.660;2023-12-22T13:30:53;1.63;;;0.80;;
13114;SDS011;6623;52.120;8.660;2023-12-22T13:33:18;1.17;;;0.70;;
13114;SDS011;6623;52.120;8.660;2023-12-22T13:35:44;0.90;;;0.60;;
13114;SDS011;6623;52.120;8.660;2023-12-22T13:38:11;1.67;;;0.83;;
13114;SDS011;6623;52.120;8.660;2023-12-22T13:40:37;0.83;;;0.57;;
13114;SDS011;6623;52.120;8.660;2023-12-22T13:43:03;1.10;;;0.70;;
13114;SDS011;6623;52.120;8.660;2023-12-22T13:45:29;1.10;;;0.60;;
13114;SDS011;6623;52.120;8.660;2023-12-22T13:47:56;1.27;;;0.70;;
13114;SDS011;6623;52.120;8.660;2023-12-22T13:50:22;1.30;;;0.70;;
13114;SDS011;6623;52.120;8.660;2023-12-22T13:52:48;1.47;;;0.60;;
13114;SDS011;6623;52.120;8.660;2023-12-22T13:55:17;1.20;;;0.60;;
13114;SDS011;6623;52.120;8.660;2023-12-22T13:57:44;1.10;;;0.60;;
13114;SDS011;6623;52.120;8.660;2023-12-22T14:02:47;2.00;;;0.90;;
13114;SDS011;6623;52.120;8.660;2023-12-22T14:05:16;1.40;;;0.50;;
13114;SDS011;6623;52.120;8.660;2023-12-22T14:07:45;0.77;;;0.43;;
13114;SDS011;6623;52.120;8.660;2023-12-22T14:10:11;1.07;;;0.70;;
13114;SDS011;6623;52.120;8.660;2023-12-22T14:12:37;0.77;;;0.47;;
13114;SDS011;6623;52.120;8.660;2023-12-22T14:15:04;1.30;;;0.70;;
13114;SDS011;6623;52.120;8.660;2023-12-22T14:17:31;1.17;;;0.67;;
13114;SDS011;6623;52.120;8.660;2023-12-22T14:19:57;0.93;;;0.60;;
13114;SDS011;6623;52.120;8.660;2023-12-22T14:22:22;1.10;;;0.50;;
13114;SDS011;6623;52.120;8.660;2023-12-22T14:24:48;1.23;;;0.70;;
13114;SDS011;6623;52.120;8.660;2023-12-22T14:27:13;3.47;;;0.80;;
13114;SDS011;6623;52.120;8.660;2023-12-22T14:29:39;1.03;;;0.53;;
13114;SDS011;6623;52.120;8.660;2023-12-22T14:32:07;0.87;;;0.47;;
13114;SDS011;6623;52.120;8.660;2023-12-22T14:34:44;2.03;;;0.60;;
13114;SDS011;6623;52.120;8.660;2023-12-22T14:37:12;1.10;;;0.60;;
13114;SDS011;6623;52.120;8.660;2023-12-22T14:39:38;1.13;;;0.57;;
13114;SDS011;6623;52.120;8.660;2023-12-22T14:42:04;1.13;;;0.40;;
13114;SDS011;6623;52.120;8.660;2023-12-22T14:44:29;1.33;;;0.60;;
13114;SDS011;6623;52.120;8.660;2023-12-22T14:46:55;0.93;;;0.53;;
13114;SDS011;6623;52.120;8.660;2023-12-22T14:49:21;0.87;;;0.50;;
13114;SDS011;6623;52.120;8.660;2023-12-22T14:51:46;1.60;;;0.60;;
13114;SDS011;6623;52.120;8.660;2023-12-22T14:54:16;0.53;;;0.37;;
13114;SDS011;6623;52.120;8.660;2023-12-22T14:56:42;0.90;;;0.50;;
13114;SDS011;6623;52.120;8.660;2023-12-22T14:59:11;0.67;;;0.40;;
13114;SDS011;6623;52.120;8.660;2023-12-22T15:01:39;1.43;;;0.70;;
13114;SDS011;6623;52.120;8.660;2023-12-22T15:04:05;2.20;;;0.50;;
13114;SDS011;6623;52.120;8.660;2023-12-22T15:06:31;0.97;;;0.50;;